Central, Connecticut
Current Conditions -  °F | °C
As of 2:53 AM on Friday 28 Nov 2014 (Local Time) from KHFD Reporting Station
Overcast Overcast  
Wind Chill: 26°   Ceiling: 5500
Heat Index: 32°   Visibility: 10mi
Dew Point: 26°   Wind: 6mph
Humidity: 79%   Direction: NA
Pressure: 30.03"   Gusts: NA
Location:  41.7665°N, 72.6731°W
Report Text: KHFD 280753Z VRB05KT 10SM OVC055 00/M03 A3003 RMK AO2 SLP169 T00001033
Loading
Personal Weather Stations






























Interactive Weather Map New forecast layout! Learn more

10-Day Weather Forecast

Advertisements
Track Severe Weather on mobile